This is the latest recevied weather packets stored in our database for station/object EA2KR-10. If no packets are shown the sender has not sent any weather packets the latest 10 day(s).
| Time | Temp. | Humidity | Pressure | Rain* | Wind** | Luminosity | Snow |
|---|---|---|---|---|---|---|---|
| 1778184658 | 15.56° C | 53% | 1022.6 hPa | - | - | - | - |
| 1778182858 | 16.11° C | 53% | 1022.4 hPa | - | - | - | - |
| 1778181058 | 16.67° C | 52% | 1022.3 hPa | - | - | - | - |
| 1778179258 | 17.22° C | 50% | 1021.8 hPa | - | - | - | - |
| 1778177457 | 18.33° C | 45% | 1021.4 hPa | - | - | - | - |
| 1778175657 | 21.11° C | 38% | 1021.3 hPa | - | - | - | - |
| 1778173857 | 21.11° C | 38% | 1021 hPa | - | - | - | - |
| 1778172057 | 21.67° C | 40% | 1021.2 hPa | - | - | - | - |
| 1778170257 | 24.44° C | 34% | 1020.9 hPa | - | - | - | - |
| 1778168463 | 25° C | 32% | 1020.9 hPa | - | - | - | - |
| 1778166663 | 25° C | 33% | 1020.7 hPa | - | - | - | - |
| 1778164863 | 22.22° C | 38% | 1021.1 hPa | - | - | - | - |
| 1778163063 | 24.44° C | 35% | 1021.6 hPa | - | - | - | - |
| 1778161263 | 22.78° C | 38% | 1021.5 hPa | - | - | - | - |
| 1778159463 | 21.11° C | 38% | 1021.8 hPa | - | - | - | - |
| 1778157662 | 23.33° C | 38% | 1022.2 hPa | - | - | - | - |
| 1778155862 | 22.22° C | 42% | 1022.2 hPa | - | - | - | - |
| 1778154062 | 21.67° C | 43% | 1022.6 hPa | - | - | - | - |
| 1778152262 | 22.78° C | 42% | 1022.8 hPa | - | - | - | - |
| 1778150462 | 23.89° C | 44% | 1022.7 hPa | - | - | - | - |
| 1778148662 | 23.89° C | 43% | 1022.9 hPa | - | - | - | - |
| 1778146862 | 22.78° C | 45% | 1023.2 hPa | - | - | - | - |
| 1778145062 | 22.22° C | 45% | 1023.2 hPa | - | - | - | - |
| 1778143262 | 21.11° C | 42% | 1023 hPa | - | - | - | - |
| 1778141462 | 18.33° C | 45% | 1023.2 hPa | - | - | - | - |
* Rain since midnight (hover to see other rain measurements)
** Current wind speed in m/s (hover to see current wind gust speed)